Terminal Aerodrome Forecast
Issued by NWS Jackson, MS

Home | Current Version | Previous Version | Text Only | Print | Product List | Glossary On
Versions: 1 2 3 4 5 6 7 8 9 10 11 12 13 14 15 16
266
FTUS44 KJAN 280027 CCA
TAFMEI
TAF COR
KMEI 280027Z 2800/2824 18007KT P6SM OVC022
     FM280130 19005KT P6SM SCT020 BKN120
     FM280900 19004KT 4SM BR SCT025
     FM281300 23010KT P6SM SCT025 BKN040
     FM281800 25013G18KT P6SM VCTS BKN035CB=

USA.gov is the U.S. government's official web portal to all federal, state and local government web resources and services.